Weather observations for the past three days for
York, York Municipal Airport
Imperial (Metric)
Date Time (cdt) Wind (mph) Vis. (mi.) Weather Sky Cond. Temperature (ºF) Relative Humidity Wind Chill (°F) Heat Index (°F) Pressure Precipitation (in)
Air Dwpt 6 hour altimeter (in) sea level (mb) 1 hr 3 hr 6 hr
Max. Min.
05 18:15 S 7 10.00 Fair CLR 93.2 75.2 56% 105 29.9 0.0
05 17:55 SE 12 10.00 Fair CLR 95 73.4 50% 105 29.9 0.0
05 17:35 SE 13 10.00 Fair CLR 95 73.4 50% 105 29.9 0.0
05 17:15 SE 13 10.00 Fair CLR 95 75.2 53% 107 29.9 0.0
05 16:55 SE 10 10.00 Fair CLR 93.2 78.8 63% 110 29.9 0.0
05 16:35 E 8 G 15 10.00 Fair CLR 93.2 78.8 63% 110 29.91 0.0
05 16:15 SE 13 10.00 Fair CLR 93.2 78.8 63% 110 29.92 0.0
05 15:55 E 12 10.00 Fair CLR 93.2 78.8 63% 110 29.94 0.0
05 15:35 E 14 10.00 Fair CLR 91.4 77 63% 105 29.94 0.0
05 15:15 E 15 10.00 Fair CLR 91.4 77 63% 105 29.95 0.0
05 14:55 E 12 G 21 10.00 Fair CLR 93.2 77 59% 107 29.96 0.0
05 12:55 E 16 10.00 Fair CLR 89.6 75.2 63% 100 30 0.0
05 12:35 E 14 G 21 10.00 Fair CLR 89.6 75.2 63% 100 30 0.0
05 12:15 NE 13 10.00 Fair CLR 89.6 75.2 63% 100 30 0.0
05 11:35 NE 10 G 16 10.00 Fair CLR 87.8 77 70% 100 30.01 0.0
05 11:15 NE 9 G 16 10.00 Fair CLR 87.8 77 70% 100 30.01 0.0
05 10:55 NE 8 10.00 Fair CLR 86 77 75% 97 30 0.0
05 10:35 N 5 10.00 Fair CLR 86 75.2 70% 95 29.99 0.0
05 10:15 NE 6 10.00 Fair CLR 84.2 75.2 74% 92 29.98 0.0
05 09:55 Calm 10.00 Fair CLR 82.4 75.2 79% 89 29.97 0.0
05 09:35 S 6 10.00 Fair CLR 84.2 75.2 74% 92 29.95 0.0
05 09:15 S 6 10.00 Fair CLR 82.4 73.4 74% 88 29.96 0.0
05 08:55 S 7 10.00 Fair CLR 80.6 73.4 79% 85 29.95 0.0
05 08:35 S 6 10.00 Fair CLR 78.8 73.4 84% 82 29.95 0.0
05 08:15 S 6 10.00 Fair CLR 75.2 73.4 94% 74 29.94 0.0
05 07:55 S 6 10.00 Fair CLR 73.4 71.6 94% 29.93 0.0
05 07:35 S 7 10.00 Fair CLR 71.6 71.6 100% 29.92 0.0
05 07:15 SE 7 10.00 Fair CLR 71.6 71.6 100% 29.92 0.0
05 06:55 SE 7 10.00 Fair CLR 71.6 71.6 100% 29.91 0.0
05 06:35 SE 7 10.00 Fair CLR 71.6 71.6 100% 29.91 0.0
05 06:15 SE 5 10.00 Fair CLR 71.6 71.6 100% 29.91 0.0
05 05:55 SE 5 10.00 Fair CLR 71.6 71.6 100% 29.91 0.0
05 05:35 S 6 10.00 Fair CLR 73.4 71.6 94% 29.91 0.0
05 05:15 SE 6 10.00 Fair CLR 73.4 71.6 94% 29.9 0.0
05 04:55 SE 6 10.00 Fair CLR 73.4 71.6 94% 29.9 0.0
05 04:35 SE 7 10.00 Fair CLR 73.4 71.6 94% 29.9 0.0
05 04:15 S 7 10.00 Fair CLR 73.4 73.4 100% 29.91 0.0
05 03:55 SE 6 10.00 Fair CLR 73.4 73.4 100% 29.92 0.0
05 03:35 S 8 10.00 Fair CLR 75.2 73.4 94% 74 29.92 0.0
05 03:15 S 7 10.00 Fair CLR 75.2 73.4 94% 74 29.92 0.0
05 02:55 SE 6 10.00 Fair CLR 73.4 73.4 100% 29.93 0.0
05 02:35 SE 5 10.00 Fair CLR 75.2 73.4 94% 74 29.93 0.0
05 02:15 SE 6 10.00 Fair CLR 77 73.4 89% 78 29.93 0.0
05 01:55 SE 5 10.00 Fair CLR 77 73.4 89% 78 29.93 0.0
05 01:35 SE 7 10.00 Fair CLR 77 73.4 89% 78 29.93 0.0
05 01:15 SE 5 10.00 Fair CLR 77 75.2 94% 78 29.93 0.0
05 00:55 SE 6 10.00 Fair CLR 77 75.2 94% 78 29.93 0.0
05 00:35 SE 6 10.00 Fair CLR 77 75.2 94% 78 29.93 0.0
05 00:15 SE 6 9.00 Fair CLR 77 75.2 94% 78 29.93 0.0
04 23:55 SE 5 10.00 Fair CLR 78.8 75.2 89% 82 29.93 0.0
04 23:35 SE 7 10.00 Fair CLR 80.6 75.2 84% 86 29.92 0.0
04 23:15 SE 8 10.00 Fair CLR 80.6 75.2 84% 86 29.92 0.0
04 22:55 SE 6 10.00 Fair CLR 80.6 75.2 84% 86 29.92 0.0
04 22:35 SE 7 10.00 Fair CLR 80.6 77 89% 87 29.92 0.0
04 22:15 SE 8 10.00 Fair CLR 80.6 77 89% 87 29.92 0.0
04 21:55 SE 8 10.00 Fair CLR 80.6 77 89% 87 29.91 0.0
04 21:35 SE 6 10.00 Fair CLR 80.6 78.8 94% 88 29.91 0.0
04 21:15 SE 6 10.00 Fair CLR 82.4 78.8 89% 92 29.9 0.0
04 20:55 SE 7 7.00 Fair CLR 80.6 78.8 94% 88 29.9 0.0
04 20:35 E 6 10.00 Fair CLR 82.4 78.8 89% 92 29.89 0.0
04 20:15 SE 6 10.00 Fair CLR 82.4 78.8 89% 92 29.89 0.0
04 19:55 SE 6 10.00 Fair CLR 86 78.8 79% 99 29.89 0.0
04 19:35 SE 3 10.00 Fair CLR 87.8 78.8 75% 102 29.89 0.0
04 19:15 SE 6 10.00 Fair CLR 87.8 78.8 75% 102 29.88 0.0
04 18:55 SE 6 10.00 Fair CLR 87.8 78.8 75% 102 29.88 0.0
04 18:35 S 7 10.00 Fair CLR 89.6 78.8 71% 105 29.88 0.0
04 18:15 SE 7 9.00 Fair CLR 89.6 78.8 71% 105 29.88 0.0
04 17:55 E 3 10.00 Fair CLR 87.8 82.4 84% 108 29.88 0.0
04 17:35 NE 5 10.00 Fair CLR 89.6 80.6 75% 108 29.89 0.0
04 17:15 NE 6 10.00 Fair CLR 89.6 82.4 79% 111 29.89 0.0
04 16:55 SE 6 10.00 Fair CLR 89.6 80.6 75% 108 29.89 0.0
04 16:35 Calm 10.00 Fair CLR 89.6 78.8 71% 105 29.9 0.0
04 16:15 S 7 10.00 Fair CLR 89.6 80.6 75% 108 29.9 0.0
04 15:55 S 3 10.00 Fair CLR 91.4 78.8 67% 108 29.9 0.0
04 15:35 S 6 10.00 Fair CLR 93.2 78.8 63% 110 29.9 0.0
04 15:15 S 3 10.00 Fair CLR 93.2 77 59% 107 29.9 0.0
04 14:55 Vrbl 5 10.00 Fair CLR 95 75.2 53% 107 29.9 0.0
04 14:35 SW 6 9.00 Fair CLR 95 77 56% 110 29.9 0.0
04 14:15 S 6 10.00 Fair CLR 93.2 77 59% 107 29.91 0.0
04 13:55 S 7 10.00 Fair CLR 93.2 77 59% 107 29.91 0.0
04 13:35 Vrbl 6 10.00 Fair CLR 93.2 77 59% 107 29.92 0.0
04 13:15 S 7 10.00 Fair CLR 95 77 56% 110 29.92 0.0
04 12:55 Calm 10.00 Fair CLR 95 77 56% 110 29.92 0.0
04 12:35 Calm 10.00 Fair CLR 93.2 75.2 56% 105 29.92 0.0
04 12:15 Calm 10.00 Fair CLR 93.2 77 59% 107 29.92 0.0
04 11:55 Vrbl 6 10.00 Fair CLR 91.4 77 63% 105 29.92 0.0
04 11:35 SW 8 10.00 Fair CLR 91.4 77 63% 105 29.92 0.0
04 11:15 W 7 10.00 Fair CLR 89.6 77 67% 103 29.92 0.0
04 10:55 SW 9 10.00 Fair CLR 87.8 77 70% 100 29.91 0.0
04 10:35 W 9 10.00 Fair CLR 86 75.2 70% 95 29.91 0.0
04 10:15 SW 9 10.00 Fair CLR 86 75.2 70% 95 29.91 0.0
04 09:55 SW 8 10.00 Fair CLR 84.2 75.2 74% 92 29.9 0.0
04 09:35 SW 8 10.00 Fair CLR 82.4 75.2 79% 89 29.9 0.0
04 09:15 SW 7 10.00 Fair CLR 80.6 75.2 84% 86 29.9 0.0
04 08:55 SW 7 10.00 A Few Clouds FEW110 78.8 75.2 89% 82 29.9 0.0
04 08:35 SW 7 10.00 A Few Clouds FEW110 77 75.2 94% 78 29.89 0.0
04 08:15 SW 6 10.00 A Few Clouds FEW110 75.2 73.4 94% 74 29.89 0.0
04 07:55 S 3 10.00 A Few Clouds FEW110 73.4 73.4 100% 29.89 0.0
04 07:35 Calm 10.00 A Few Clouds FEW110 71.6 71.6 100% 29.89 0.0
04 07:15 S 5 10.00 Fair CLR 71.6 71.6 100% 29.88 0.0
04 06:55 S 7 10.00 Fair CLR 71.6 71.6 100% 29.87 0.0
04 06:35 S 7 10.00 Fair CLR 71.6 71.6 100% 29.87 0.0
04 06:15 S 7 10.00 Fair CLR 71.6 71.6 100% 29.87 0.0
04 05:55 S 6 10.00 Fair CLR 71.6 71.6 100% 29.87 0.0
04 05:35 S 6 9.00 Fair CLR 71.6 71.6 100% 29.87 0.0
04 05:15 S 7 10.00 Fair CLR 73.4 71.6 94% 29.87 0.0
04 04:55 S 8 10.00 Fair CLR 73.4 71.6 94% 29.86 0.0
04 04:35 S 8 10.00 Fair CLR 73.4 71.6 94% 29.86 0.0
04 04:15 SW 6 10.00 Fair CLR 75.2 71.6 89% 75 29.86 0.0
04 03:55 S 9 10.00 Fair CLR 75.2 69.8 83% 75 29.85 0.0
04 03:35 S 9 10.00 Fair CLR 75.2 69.8 83% 75 29.85 0.0
04 03:15 S 12 10.00 Fair CLR 77 69.8 79% 79 29.84 0.0
04 02:55 S 12 10.00 Fair CLR 77 69.8 79% 79 29.85 0.0
04 02:35 S 13 10.00 Fair CLR 78.8 69.8 74% 81 29.85 0.0
04 02:15 S 10 10.00 Fair CLR 78.8 69.8 74% 81 29.85 0.0
04 01:55 S 14 10.00 Fair CLR 78.8 69.8 74% 81 29.85 0.0
04 01:35 S 13 10.00 Fair CLR 78.8 68 70% 81 29.85 0.0
04 01:15 S 12 10.00 Fair CLR 78.8 68 70% 81 29.85 0.0
04 00:55 S 12 10.00 Fair CLR 78.8 69.8 74% 81 29.84 0.0
04 00:35 S 12 10.00 Fair CLR 78.8 69.8 74% 81 29.83 0.0
04 00:15 S 13 10.00 Fair CLR 78.8 69.8 74% 81 29.83 0.0
03 23:55 S 12 10.00 Fair CLR 80.6 69.8 70% 84 29.83 0.0
03 23:35 S 13 10.00 Fair CLR 80.6 69.8 70% 84 29.82 0.0
03 23:15 S 12 10.00 Fair CLR 80.6 69.8 70% 84 29.83 0.0
03 22:55 S 10 10.00 Fair CLR 80.6 69.8 70% 84 29.83 0.0
03 22:35 S 12 10.00 Fair CLR 82.4 69.8 66% 86 29.82 0.0
03 22:15 S 10 10.00 Fair CLR 82.4 69.8 66% 86 29.82 0.0
03 21:55 S 12 10.00 Fair CLR 84.2 71.6 66% 90 29.81 0.0
03 21:35 S 12 10.00 Fair CLR 84.2 71.6 66% 90 29.81 0.0
03 21:15 SE 9 10.00 Fair CLR 82.4 73.4 74% 88 29.8 0.0
03 20:55 SE 10 10.00 Fair CLR 84.2 73.4 70% 91 29.79 0.0
03 20:35 SE 9 10.00 Fair CLR 84.2 75.2 74% 92 29.78 0.0
03 20:15 SE 10 10.00 Fair CLR 84.2 75.2 74% 92 29.77 0.0
03 19:55 SE 7 10.00 Fair CLR 86 75.2 70% 95 29.77 0.0
03 19:35 SE 7 10.00 Fair CLR 89.6 75.2 63% 100 29.77 0.0
03 19:15 SE 7 10.00 Fair CLR 89.6 75.2 63% 100 29.76 0.0
03 18:55 SE 8 G 14 10.00 Fair CLR 93.2 75.2 56% 105 29.76 0.0
03 18:35 SE 9 10.00 Fair CLR 93.2 73.4 53% 103 29.76 0.0
03 18:15 S 12 10.00 Fair CLR 95 73.4 50% 105 29.76 0.0
03 17:55 S 10 10.00 Fair CLR 95 75.2 53% 107 29.76 0.0
03 17:35 S 13 10.00 Fair CLR 95 75.2 53% 107 29.76 0.0
03 17:15 S 10 10.00 Fair CLR 96.8 73.4 47% 107 29.76 0.0
03 16:55 S 12 G 20 10.00 Fair CLR 96.8 73.4 47% 107 29.77 0.0
03 16:35 S 17 10.00 Fair CLR 96.8 73.4 47% 107 29.77 0.0
03 16:15 S 13 G 21 10.00 Fair CLR 96.8 73.4 47% 107 29.77 0.0
03 15:55 S 15 10.00 Fair CLR 96.8 73.4 47% 107 29.78 0.0
03 15:35 S 10 G 17 10.00 Fair CLR 95 73.4 50% 105 29.78 0.0
03 15:15 S 13 10.00 Fair CLR 95 73.4 50% 105 29.79 0.0
03 14:55 S 15 G 22 10.00 Fair CLR 95 73.4 50% 105 29.79 0.0
03 14:35 S 15 10.00 Fair CLR 95 73.4 50% 105 29.79 0.0
03 14:15 S 16 10.00 Fair CLR 95 73.4 50% 105 29.8 0.0
03 13:55 S 14 0.00 Fair CLR 95 71.6 47% 103 29.81 0.0 0.05
03 13:35 S 13 0.00 Fair CLR 95 73.4 50% 105 29.82 0.0
03 13:15 S 13 G 20 0.50 Heavy Rain Haze VV005 93.2 73.4 53% 103 29.82 0.0
03 12:55 Calm 10.00 Fair CLR 0 0 0% 29.83 0.0
03 12:35 S 13 10.00 Fair CLR 91.4 73.4 56% 100 29.83 0.0
03 12:15 S 16 10.00 Fair CLR 89.6 71.6 55% 96 29.83 0.0
03 11:55 S 12 10.00 Fair CLR 89.6 71.6 55% 96 29.84 0.0
03 11:35 S 12 G 17 10.00 Fair CLR 87.8 71.6 59% 94 29.84 0.0
03 11:15 SW 12 10.00 Fair CLR 87.8 73.4 62% 96 29.85 0.0
03 10:55 S 12 10.00 Fair CLR 86 71.6 62% 92 29.84 0.0
03 10:35 S 9 10.00 Fair CLR 84.2 71.6 66% 90 29.85 0.0
03 10:15 S 8 10.00 Fair CLR 84.2 71.6 66% 90 29.84 0.0
03 09:55 S 9 10.00 Fair CLR 82.4 71.6 70% 87 29.84 0.0
03 09:35 S 9 G 15 10.00 Fair CLR 80.6 71.6 74% 85 29.85 0.0
03 09:15 SW 8 10.00 Fair CLR 78.8 69.8 74% 81 29.85 0.0
03 08:55 W 9 10.00 Fair CLR 78.8 69.8 74% 81 29.86 0.0
03 08:35 W 10 10.00 Fair CLR 77 69.8 79% 79 29.86 0.0
03 08:15 S 12 10.00 Fair CLR 77 69.8 79% 79 29.83 0.0
03 07:55 S 10 10.00 Fair CLR 75.2 68 78% 76 29.83 0.0
03 07:35 S 10 10.00 NULL NULL 73.4 68 83% 29.83 0.0
03 07:15 S 9 10.00 NULL NULL 73.4 68 83% 29.83 0.0
03 06:55 S 9 10.00 NULL NULL 73.4 68 83% 29.83 0.0
03 06:35 S 10 10.00 NULL NULL 75.2 68 78% 76 29.83 0.0
03 06:15 S 9 10.00 NULL NULL 75.2 68 78% 76 29.83 0.0
03 05:55 S 10 10.00 NULL NULL 75.2 68 78% 76 29.83 0.0
03 05:35 S 12 10.00 A Few Clouds FEW027 75.2 68 78% 76 29.83 0.0
03 05:15 S 14 10.00 A Few Clouds FEW025 FEW029 77 68 74% 79 29.82 0.0
03 04:55 S 12 10.00 A Few Clouds FEW022 FEW028 77 68 74% 79 29.83 0.0
03 04:35 S 10 10.00 NULL NULL 77 68 74% 79 29.83 0.0
03 04:15 S 13 10.00 NULL NULL 77 68 74% 79 29.83 0.0
03 03:55 S 12 G 18 10.00 NULL NULL 77 68 74% 79 29.83 0.0
03 03:35 S 13 10.00 NULL NULL 78.8 68 70% 81 29.83 0.0
03 03:15 S 14 10.00 NULL NULL 78.8 66.2 65% 81 29.83 0.0
03 02:55 S 14 10.00 NULL NULL 78.8 66.2 65% 81 29.83 0.0
03 02:35 S 13 10.00 NULL NULL 78.8 68 70% 81 29.83 0.0
03 02:15 S 13 10.00 NULL NULL 78.8 68 70% 81 29.84 0.0
03 01:55 S 12 10.00 NULL NULL 78.8 68 70% 81 29.84 0.0
03 01:35 S 12 10.00 NULL NULL 78.8 68 70% 81 29.84 0.0
03 01:15 S 10 G 17 10.00 NULL NULL 78.8 68 70% 81 29.84 0.0
03 00:55 S 12 10.00 NULL NULL 78.8 68 70% 81 29.84 0.0
03 00:35 S 12 10.00 Fair CLR 78.8 68 70% 81 29.84 0.0
03 00:15 S 13 10.00 NULL NULL 78.8 68 70% 81 29.83 0.0
02 23:55 S 12 10.00 NULL NULL 80.6 68 66% 83 29.84 0.0
02 23:35 S 12 10.00 NULL NULL 80.6 68 66% 83 29.84 0.0
02 23:15 S 13 G 20 10.00 NULL NULL 80.6 68 66% 83 29.83 0.0
02 22:55 S 14 G 21 10.00 NULL NULL 82.4 68 62% 85 29.83 0.0
02 22:35 S 13 G 21 10.00 Fair CLR 82.4 68 62% 85 29.83 0.0
02 22:15 S 13 10.00 Fair CLR 82.4 68 62% 85 29.83 0.0
02 21:55 S 12 10.00 NULL NULL 82.4 68 62% 85 29.83 0.0
02 21:35 S 12 9.00 Light Rain NULL 82.4 69.8 66% 86 29.83 0.0
02 21:15 S 14 10.00 NULL NULL 82.4 69.8 66% 86 29.82 0.0
02 20:55 SE 12 10.00 NULL NULL 84.2 69.8 62% 88 29.81 0.0
02 20:35 SE 12 10.00 NULL NULL 84.2 71.6 66% 90 29.81 0.0
02 20:15 SE 10 10.00 Fair CLR 84.2 71.6 66% 90 29.8 0.0
02 19:55 SE 9 10.00 Fair CLR 86 71.6 62% 92 29.8 0.0
02 19:35 SE 9 10.00 Fair CLR 87.8 71.6 59% 94 29.8 0.0
02 19:15 SE 9 10.00 Fair CLR 89.6 73.4 59% 98 29.8 0.0
02 18:55 SE 9 10.00 Fair CLR 91.4 73.4 56% 100 29.8 0.0
Date Time (cdt) Wind (mph) Vis. (mi.) Weather Sky Cond. Air Dwpt Max. Min. Relative Humidity Wind Chill (°F) Heat Index (°F) altimeter (in) sea level (mb) 1 hr 3 hr 6 hr
6 hour
Temperature (ºF) Pressure Precipitation (in)